Time;durP1;ratioP1;P1;durP2;ratioP2;P2;SDS_P1;SDS_P2;PMS_P1;PMS_P2;Temp;Humidity;BMP_temperature;BMP_pressure;BME280_temperature;BME280_humidity;BME280_pressure;Samples;Min_cycle;Max_cycle;Signal;HPM_P1;HPM_P2
2023/02/07 00:01:12;;;;;;;5.80;4.30;;;3.70;99.90;;;;;;5051888;28;20285;-78
2023/02/07 00:03:39;;;;;;;13.77;6.32;;;3.70;99.90;;;;;;5052043;28;20279;-78
2023/02/07 00:06:10;;;;;;;11.52;5.70;;;3.70;99.90;;;;;;5034075;28;20251;-78
2023/02/07 00:08:37;;;;;;;10.75;5.75;;;3.60;99.90;;;;;;5051105;28;20169;-78
2023/02/07 00:11:08;;;;;;;7.47;4.18;;;3.60;99.90;;;;;;5050569;28;20180;-78
2023/02/07 00:13:34;;;;;;;12.73;7.45;;;3.60;99.90;;;;;;5052040;28;20189;-78
2023/02/07 00:16:01;;;;;;;8.10;4.95;;;3.60;99.90;;;;;;5033383;28;20184;-78
2023/02/07 00:18:27;;;;;;;7.85;4.65;;;3.60;99.90;;;;;;5051875;28;20169;-78
2023/02/07 00:20:58;;;;;;;7.40;4.43;;;3.50;99.90;;;;;;5051773;28;20572;-78
2023/02/07 00:23:23;;;;;;;8.32;5.03;;;3.50;99.90;;;;;;5051776;28;20197;-78
2023/02/07 00:25:49;;;;;;;10.50;6.30;;;3.50;99.90;;;;;;5033073;28;20256;-78
2023/02/07 00:28:15;;;;;;;9.97;5.17;;;3.40;99.90;;;;;;5050592;28;20177;-77
2023/02/07 00:30:40;;;;;;;9.70;7.10;;;3.50;99.90;;;;;;5050333;28;20164;-78
2023/02/07 00:33:06;;;;;;;8.13;5.03;;;3.40;99.90;;;;;;5051535;28;20262;-78
2023/02/07 00:35:32;;;;;;;10.20;5.27;;;3.40;99.90;;;;;;5049801;28;20664;-78
2023/02/07 00:37:58;;;;;;;8.60;5.00;;;3.40;99.90;;;;;;5050304;28;20535;-77
2023/02/07 00:40:24;;;;;;;8.85;4.35;;;3.40;99.90;;;;;;5051278;28;20212;-77
2023/02/07 00:42:50;;;;;;;7.93;4.70;;;3.40;99.90;;;;;;5051294;28;20238;-77
2023/02/07 00:45:16;;;;;;;6.00;4.73;;;3.40;99.90;;;;;;5033483;28;20176;-77
2023/02/07 00:47:41;;;;;;;12.83;5.80;;;3.40;99.90;;;;;;5033737;28;20653;-77
2023/02/07 00:50:07;;;;;;;7.90;4.47;;;3.40;99.90;;;;;;5051894;28;21102;-77
2023/02/07 00:52:33;;;;;;;6.57;4.22;;;3.40;99.90;;;;;;5049698;28;20208;-77
2023/02/07 00:54:59;;;;;;;7.80;4.80;;;3.30;99.90;;;;;;5049807;28;20173;-77
2023/02/07 00:57:24;;;;;;;6.33;4.70;;;3.30;99.90;;;;;;5036369;28;20177;-78
2023/02/07 00:59:50;;;;;;;8.00;5.40;;;3.30;99.90;;;;;;5035105;28;20204;-78
2023/02/07 01:02:16;;;;;;;8.85;5.15;;;3.30;99.90;;;;;;5033619;28;20683;-79
2023/02/07 01:04:42;;;;;;;9.93;4.90;;;3.20;99.90;;;;;;5033428;28;20184;-78
2023/02/07 01:07:08;;;;;;;9.30;5.00;;;3.20;99.90;;;;;;5050221;28;20974;-78
2023/02/07 01:09:34;;;;;;;9.20;5.03;;;3.20;99.90;;;;;;5049362;28;20271;-78
2023/02/07 01:11:59;;;;;;;8.23;5.23;;;3.20;99.90;;;;;;5049762;28;20732;-78
2023/02/07 01:14:25;;;;;;;10.33;5.93;;;3.20;99.90;;;;;;5049888;28;20180;-79
2023/02/07 01:16:51;;;;;;;9.80;6.10;;;3.20;99.90;;;;;;5032953;28;20267;-79
2023/02/07 01:19:17;;;;;;;12.17;6.73;;;3.10;99.90;;;;;;5049576;28;20663;-79
2023/02/07 01:21:43;;;;;;;7.07;5.28;;;3.10;99.90;;;;;;5049485;28;20173;-79
2023/02/07 01:24:09;;;;;;;7.95;5.80;;;3.10;99.90;;;;;;5049614;28;20207;-79
2023/02/07 01:26:36;;;;;;;8.57;5.10;;;3.10;99.90;;;;;;5032383;28;20173;-78
2023/02/07 01:29:02;;;;;;;6.82;6.00;;;3.10;99.90;;;;;;5049760;28;20588;-79
2023/02/07 01:31:28;;;;;;;7.00;5.05;;;3.00;99.90;;;;;;5049160;28;20200;-79
2023/02/07 01:33:55;;;;;;;8.13;4.27;;;3.00;99.90;;;;;;5033219;28;20673;-78
2023/02/07 01:36:21;;;;;;;10.25;5.53;;;3.00;99.90;;;;;;5015861;28;21119;-78
2023/02/07 01:38:51;;;;;;;9.60;4.72;;;3.00;99.90;;;;;;5049449;28;20260;-79
2023/02/07 01:41:18;;;;;;;8.07;4.78;;;2.90;99.90;;;;;;5032476;28;20211;-79
2023/02/07 01:43:53;;;;;;;10.05;5.25;;;2.90;99.90;;;;;;5033098;28;20192;-79
2023/02/07 01:46:19;;;;;;;7.53;4.65;;;2.90;99.90;;;;;;5032691;28;20172;-79
2023/02/07 01:48:44;;;;;;;7.67;5.03;;;2.80;99.90;;;;;;5016250;28;20260;-79
2023/02/07 01:51:11;;;;;;;7.80;4.95;;;2.80;99.90;;;;;;5032893;28;20227;-79
2023/02/07 01:53:39;;;;;;;6.97;4.33;;;2.80;99.90;;;;;;5053075;28;20201;-79
2023/02/07 01:56:09;;;;;;;6.50;4.35;;;2.80;99.90;;;;;;5036476;28;20579;-78
2023/02/07 01:58:36;;;;;;;8.60;4.82;;;2.70;99.90;;;;;;5036524;28;20204;-78
2023/02/07 02:01:08;;;;;;;8.63;5.25;;;2.70;99.90;;;;;;5035379;28;20207;-79
2023/02/07 02:03:38;;;;;;;9.70;4.93;;;2.70;99.90;;;;;;5016059;28;20285;-79
2023/02/07 02:06:05;;;;;;;9.02;4.97;;;2.70;99.90;;;;;;5016692;28;20169;-79
2023/02/07 02:08:30;;;;;;;9.05;4.72;;;2.60;99.90;;;;;;5017482;28;20174;-79
2023/02/07 02:11:15;;;;;;;10.30;5.30;;;2.60;99.90;;;;;;5017022;28;20320;-79
2023/02/07 02:13:51;;;;;;;8.98;4.90;;;2.60;99.90;;;;;;5017075;28;20209;-79
2023/02/07 02:16:47;;;;;;;12.50;6.47;;;2.60;99.90;;;;;;5016278;28;20587;-79
2023/02/07 02:19:55;;;;;;;5.63;4.50;;;2.50;99.90;;;;;;5017095;28;20521;-79
2023/02/07 02:22:41;;;;;;;6.57;4.72;;;2.50;99.90;;;;;;5014866;28;20190;-78
2023/02/07 02:25:22;;;;;;;6.72;4.80;;;2.50;99.90;;;;;;5016025;28;20174;-79
2023/02/07 02:28:06;;;;;;;6.20;5.05;;;2.50;99.90;;;;;;5033096;28;20224;-79
2023/02/07 02:30:56;;;;;;;6.40;4.18;;;2.50;99.90;;;;;;5032941;28;20526;-78
2023/02/07 02:34:03;;;;;;;6.35;5.15;;;2.40;99.90;;;;;;5032470;28;20677;-79
2023/02/07 02:37:00;;;;;;;6.40;4.40;;;2.40;99.90;;;;;;4977940;28;20193;-78
2023/02/07 02:39:41;;;;;;;7.00;4.95;;;2.40;99.90;;;;;;5016246;28;20346;-79
2023/02/07 02:42:17;;;;;;;6.70;5.10;;;2.30;99.90;;;;;;5015932;28;20186;-79
2023/02/07 02:45:01;;;;;;;8.40;4.57;;;2.30;99.90;;;;;;5015664;28;20174;-79
2023/02/07 02:47:29;;;;;;;5.97;3.70;;;2.30;99.90;;;;;;5032311;28;20177;-78
2023/02/07 02:49:56;;;;;;;6.30;4.60;;;2.30;99.90;;;;;;5032709;28;20177;-78
2023/02/07 02:52:22;;;;;;;9.52;4.60;;;2.30;99.90;;;;;;5014961;28;20301;-78
2023/02/07 02:54:48;;;;;;;10.85;5.80;;;2.30;99.90;;;;;;5031704;28;20177;-78
2023/02/07 02:57:45;;;;;;;9.93;4.50;;;2.20;99.90;;;;;;5032518;28;20193;-78
2023/02/07 03:00:17;;;;;;;6.75;4.55;;;2.20;99.90;;;;;;5032345;28;20209;-78
2023/02/07 03:02:45;;;;;;;7.80;4.50;;;2.20;99.90;;;;;;4999245;28;20281;-79
2023/02/07 03:05:40;;;;;;;7.68;4.20;;;2.20;99.90;;;;;;5013482;28;20668;-78
2023/02/07 03:08:19;;;;;;;6.47;4.43;;;2.20;99.90;;;;;;5015928;28;20208;-78
2023/02/07 03:10:51;;;;;;;8.40;4.88;;;2.10;99.90;;;;;;5015301;28;20260;-78
2023/02/07 03:13:21;;;;;;;7.07;4.53;;;2.10;99.90;;;;;;5032051;28;20256;-78
2023/02/07 03:16:21;;;;;;;7.90;3.95;;;2.10;99.90;;;;;;5017971;28;20564;-78
2023/02/07 03:19:05;;;;;;;10.35;6.20;;;2.00;99.90;;;;;;5035160;28;20189;-78
2023/02/07 03:21:48;;;;;;;9.18;4.35;;;2.00;99.90;;;;;;5031128;28;20205;-78
2023/02/07 03:24:22;;;;;;;7.22;4.38;;;2.00;99.90;;;;;;5032421;28;20177;-78
2023/02/07 03:26:52;;;;;;;8.02;4.28;;;1.90;99.90;;;;;;5014655;28;20174;-79
2023/02/07 03:29:21;;;;;;;7.60;4.85;;;1.90;99.90;;;;;;5015503;28;20181;-79
2023/02/07 03:31:50;;;;;;;6.28;4.50;;;1.90;99.90;;;;;;5031750;28;20235;-79
2023/02/07 03:34:21;;;;;;;7.00;5.38;;;1.80;99.90;;;;;;5032764;28;20204;-79
2023/02/07 03:37:09;;;;;;;4.80;4.20;;;1.80;99.90;;;;;;5031223;28;20170;-79
2023/02/07 03:39:35;;;;;;;9.13;4.20;;;1.80;99.90;;;;;;5031586;28;20201;-78
2023/02/07 03:42:10;;;;;;;8.10;5.03;;;1.70;99.90;;;;;;5030957;28;20895;-79
2023/02/07 03:44:37;;;;;;;6.53;4.25;;;1.70;99.90;;;;;;5032582;28;20587;-79
2023/02/07 03:47:04;;;;;;;11.10;5.43;;;1.70;99.90;;;;;;5030668;28;20209;-78
2023/02/07 03:49:29;;;;;;;12.27;4.85;;;1.70;99.90;;;;;;5031544;28;20181;-78
2023/02/07 03:51:55;;;;;;;7.20;4.20;;;1.70;99.90;;;;;;5031103;28;20264;-78
2023/02/07 03:54:21;;;;;;;8.63;4.97;;;1.70;99.90;;;;;;5031194;28;20212;-79
2023/02/07 03:56:46;;;;;;;6.33;4.33;;;1.70;99.90;;;;;;5032292;28;20737;-78
2023/02/07 03:59:12;;;;;;;7.67;4.77;;;1.70;99.90;;;;;;5031090;28;20292;-78
2023/02/07 04:01:41;;;;;;;10.33;5.33;;;1.70;99.90;;;;;;5032122;28;20606;-78
2023/02/07 04:04:08;;;;;;;7.13;4.78;;;1.60;99.90;;;;;;5014506;28;20177;-78
2023/02/07 04:06:33;;;;;;;7.78;5.22;;;1.60;99.90;;;;;;5030631;28;20182;-79
2023/02/07 04:08:59;;;;;;;7.27;4.23;;;1.60;99.90;;;;;;5031145;28;20228;-78
2023/02/07 04:11:25;;;;;;;7.27;4.27;;;1.60;99.90;;;;;;5030857;28;20583;-78
2023/02/07 04:13:51;;;;;;;5.73;3.90;;;1.60;99.90;;;;;;5031023;28;20648;-78
2023/02/07 04:16:16;;;;;;;9.07;5.37;;;1.60;99.90;;;;;;5030847;28;20682;-79
2023/02/07 04:18:42;;;;;;;6.30;4.60;;;1.60;99.90;;;;;;5031109;28;20548;-78
2023/02/07 04:21:08;;;;;;;5.70;4.13;;;1.60;99.90;;;;;;5031606;28;20624;-78
2023/02/07 04:23:38;;;;;;;8.73;4.40;;;1.60;99.90;;;;;;5015105;28;20202;-75
2023/02/07 04:26:27;;;;;;;7.35;5.20;;;1.60;99.90;;;;;;4987047;28;20184;-79
2023/02/07 04:28:53;;;;;;;5.40;4.30;;;1.60;99.90;;;;;;5030958;28;20177;-79
2023/02/07 04:31:18;;;;;;;7.10;4.57;;;1.60;99.90;;;;;;5030119;28;20177;-79
2023/02/07 04:33:44;;;;;;;6.63;4.27;;;1.60;99.90;;;;;;5030835;28;20562;-79
2023/02/07 04:36:10;;;;;;;6.47;3.80;;;1.60;99.90;;;;;;5030074;28;20209;-79
2023/02/07 04:38:36;;;;;;;5.20;3.97;;;1.50;99.90;;;;;;5030632;28;20249;-79
2023/02/07 04:41:03;;;;;;;7.70;4.20;;;1.50;99.90;;;;;;5030314;28;21214;-79
2023/02/07 04:43:30;;;;;;;4.57;3.95;;;1.50;99.90;;;;;;5031389;28;20607;-79
2023/02/07 04:45:56;;;;;;;5.25;3.53;;;1.50;99.90;;;;;;5030154;28;20534;-79
2023/02/07 04:48:22;;;;;;;6.87;4.77;;;1.50;99.90;;;;;;5030416;28;20166;-79
2023/02/07 04:50:47;;;;;;;6.10;4.47;;;1.50;99.90;;;;;;5030747;28;20169;-79
2023/02/07 04:53:13;;;;;;;9.40;5.43;;;1.50;99.90;;;;;;5029673;28;20295;-79
2023/02/07 04:55:39;;;;;;;10.38;5.97;;;1.50;99.90;;;;;;5029899;28;20576;-78
2023/02/07 04:58:06;;;;;;;7.37;4.90;;;1.50;99.90;;;;;;5030262;28;20170;-79
2023/02/07 05:00:32;;;;;;;8.40;5.97;;;1.50;99.90;;;;;;5031433;28;20669;-79
2023/02/07 05:02:58;;;;;;;8.40;5.70;;;1.50;99.90;;;;;;5031164;28;20602;-79
2023/02/07 05:05:24;;;;;;;8.48;4.97;;;1.50;99.90;;;;;;5030651;28;20559;-78
2023/02/07 05:07:50;;;;;;;5.57;4.07;;;1.60;99.90;;;;;;5030336;28;20266;-78
2023/02/07 05:10:16;;;;;;;7.00;4.90;;;1.60;99.90;;;;;;5031118;28;20647;-78
2023/02/07 05:12:41;;;;;;;11.30;4.57;;;1.60;99.90;;;;;;5029596;28;20662;-78
2023/02/07 05:15:08;;;;;;;8.83;4.77;;;1.60;99.90;;;;;;5030533;28;20950;-79
2023/02/07 05:17:33;;;;;;;9.57;5.32;;;1.60;99.90;;;;;;5029948;28;20174;-78
2023/02/07 05:20:47;;;;;;;6.33;4.23;;;1.60;99.90;;;;;;5030854;28;20199;-79
2023/02/07 05:23:13;;;;;;;8.98;5.63;;;1.60;99.90;;;;;;5051102;22;20291;-78
2023/02/07 05:25:41;;;;;;;7.65;4.35;;;1.60;99.90;;;;;;5030057;28;20172;-78
2023/02/07 05:28:07;;;;;;;5.70;3.78;;;1.50;99.90;;;;;;5029525;28;20178;-78
2023/02/07 05:30:33;;;;;;;5.20;4.17;;;1.50;99.90;;;;;;5029193;28;20503;-78
2023/02/07 05:33:07;;;;;;;6.57;3.20;;;1.50;99.90;;;;;;5029539;28;20609;-77
2023/02/07 05:35:42;;;;;;;6.43;4.25;;;1.50;99.90;;;;;;5030148;28;20176;-77
2023/02/07 05:38:11;;;;;;;4.65;3.20;;;1.50;99.90;;;;;;4996935;28;20207;-78
2023/02/07 05:40:38;;;;;;;5.88;4.00;;;1.60;99.90;;;;;;5031254;28;20206;-79
2023/02/07 05:43:04;;;;;;;6.75;3.88;;;1.60;99.90;;;;;;5030129;28;20210;-79
2023/02/07 05:45:30;;;;;;;7.07;4.28;;;1.60;99.90;;;;;;5029595;28;20185;-79
2023/02/07 05:47:56;;;;;;;7.60;4.80;;;1.60;99.90;;;;;;5011104;28;20177;-79
2023/02/07 05:50:22;;;;;;;9.10;4.60;;;1.60;99.90;;;;;;5028671;28;20182;-77
2023/02/07 05:52:48;;;;;;;6.13;4.50;;;1.60;99.90;;;;;;5014026;28;21244;-76
2023/02/07 05:55:14;;;;;;;7.30;4.93;;;1.60;99.90;;;;;;5042442;28;20177;-76
2023/02/07 05:57:41;;;;;;;8.55;5.32;;;1.60;99.90;;;;;;5012523;28;20677;-77
2023/02/07 06:00:12;;;;;;;6.63;5.07;;;1.60;99.90;;;;;;5028484;28;20223;-77
2023/02/07 06:02:39;;;;;;;8.95;4.60;;;1.60;99.90;;;;;;5012863;28;20267;-76
2023/02/07 06:05:07;;;;;;;8.10;4.93;;;1.50;99.90;;;;;;5009043;28;20594;-76
2023/02/07 06:07:33;;;;;;;5.78;3.67;;;1.50;99.90;;;;;;5009819;28;20631;-76
2023/02/07 06:09:58;;;;;;;7.07;4.55;;;1.40;99.90;;;;;;5010645;28;20174;-76
2023/02/07 06:12:24;;;;;;;5.50;4.30;;;1.40;99.90;;;;;;5010737;28;20186;-76
2023/02/07 06:14:50;;;;;;;8.00;3.77;;;1.40;99.90;;;;;;5010363;28;20178;-76
2023/02/07 06:17:16;;;;;;;6.00;4.40;;;1.30;99.90;;;;;;5009455;28;20175;-76
2023/02/07 06:19:42;;;;;;;6.13;4.50;;;1.30;99.90;;;;;;5010868;28;20201;-76
2023/02/07 06:22:07;;;;;;;4.03;2.70;;;1.30;99.90;;;;;;5010260;28;20685;-76
2023/02/07 06:24:33;;;;;;;5.03;3.23;;;1.30;99.90;;;;;;5009792;28;20244;-76
2023/02/07 06:26:59;;;;;;;4.93;2.93;;;1.30;99.90;;;;;;5008876;28;20178;-76
2023/02/07 06:29:24;;;;;;;3.60;2.90;;;1.30;99.90;;;;;;4993601;28;20182;-76
2023/02/07 06:31:50;;;;;;;5.70;2.87;;;1.20;99.90;;;;;;5009169;28;20635;-76
2023/02/07 06:34:16;;;;;;;5.57;3.37;;;1.20;99.90;;;;;;5011075;28;20174;-76
2023/02/07 06:36:41;;;;;;;6.30;3.57;;;1.30;99.90;;;;;;5010241;28;20186;-76
2023/02/07 06:39:08;;;;;;;3.80;2.80;;;1.30;99.90;;;;;;5022043;28;20627;-75
2023/02/07 06:41:33;;;;;;;5.05;3.95;;;1.30;99.90;;;;;;5033575;28;20212;-76
2023/02/07 06:43:59;;;;;;;4.10;2.97;;;1.30;99.90;;;;;;5040136;28;20169;-76
2023/02/07 06:46:25;;;;;;;21.73;4.37;;;1.30;99.90;;;;;;5049649;28;20583;-76
2023/02/07 06:48:51;;;;;;;4.07;2.80;;;1.30;99.90;;;;;;5030986;28;20217;-77
2023/02/07 06:51:16;;;;;;;2.70;2.13;;;1.40;99.90;;;;;;5032058;28;21136;-77
2023/02/07 06:53:42;;;;;;;3.87;2.50;;;1.40;99.90;;;;;;5031995;28;20227;-78
2023/02/07 06:56:08;;;;;;;3.70;2.57;;;1.50;99.90;;;;;;5033094;28;20600;-78
2023/02/07 06:58:33;;;;;;;4.80;2.60;;;1.50;99.90;;;;;;5028182;28;20185;-77
2023/02/07 07:01:03;;;;;;;3.33;2.63;;;1.60;99.90;;;;;;5027717;28;20202;-75
2023/02/07 07:03:29;;;;;;;6.13;2.92;;;1.60;99.90;;;;;;5032096;28;20236;-77
2023/02/07 07:05:57;;;;;;;2.57;1.97;;;1.70;99.90;;;;;;5031585;28;20201;-76
2023/02/07 07:08:23;;;;;;;2.72;1.90;;;1.70;99.90;;;;;;5032101;28;21164;-77
2023/02/07 07:10:49;;;;;;;3.40;2.53;;;1.80;99.90;;;;;;5031891;28;20268;-78
2023/02/07 07:13:15;;;;;;;4.90;2.60;;;1.80;99.90;;;;;;5031664;28;20785;-78
2023/02/07 07:15:41;;;;;;;4.20;2.65;;;1.90;99.90;;;;;;5031133;28;20514;-77
2023/02/07 07:18:06;;;;;;;7.00;2.77;;;1.90;99.90;;;;;;5014532;28;20180;-78
2023/02/07 07:20:32;;;;;;;3.23;2.30;;;1.90;99.90;;;;;;5031741;28;20210;-78
2023/02/07 07:22:58;;;;;;;3.70;2.93;;;2.00;99.90;;;;;;5037788;28;20261;-77
2023/02/07 07:25:24;;;;;;;2.70;2.43;;;2.00;99.90;;;;;;5041240;28;20178;-77
2023/02/07 07:27:51;;;;;;;3.53;2.67;;;2.00;99.90;;;;;;5045601;28;20540;-77
2023/02/07 07:30:17;;;;;;;3.35;1.95;;;2.10;99.90;;;;;;5051736;28;20680;-77
2023/02/07 07:32:43;;;;;;;5.00;2.37;;;2.10;99.90;;;;;;5052168;28;20216;-77
2023/02/07 07:35:09;;;;;;;4.33;2.63;;;2.20;99.90;;;;;;5051046;28;20730;-78
2023/02/07 07:37:35;;;;;;;4.50;2.57;;;2.20;99.90;;;;;;5034661;28;20173;-78
2023/02/07 07:40:02;;;;;;;3.17;2.50;;;2.20;99.90;;;;;;5038046;28;20620;-78
2023/02/07 07:42:27;;;;;;;3.60;2.43;;;2.20;99.90;;;;;;5030914;28;20190;-77
2023/02/07 07:45:16;;;;;;;2.97;2.15;;;2.30;99.90;;;;;;5014539;28;20583;-79
2023/02/07 07:47:42;;;;;;;3.63;2.20;;;2.30;99.90;;;;;;5036867;28;20206;-79
2023/02/07 07:50:08;;;;;;;3.40;2.20;;;2.30;99.90;;;;;;5031851;28;20193;-78
2023/02/07 07:52:34;;;;;;;4.80;2.42;;;2.40;99.90;;;;;;5032030;28;20560;-79
2023/02/07 07:55:00;;;;;;;6.72;2.72;;;2.30;99.90;;;;;;5030637;28;20227;-80
2023/02/07 07:57:27;;;;;;;3.80;2.60;;;2.40;99.90;;;;;;5032537;28;20627;-79
2023/02/07 07:59:54;;;;;;;2.80;2.45;;;2.40;99.90;;;;;;5032122;28;20559;-79
2023/02/07 08:02:20;;;;;;;3.30;2.65;;;2.40;99.90;;;;;;5032267;28;20193;-79
2023/02/07 08:04:46;;;;;;;4.75;2.88;;;2.50;99.90;;;;;;5031770;28;20177;-79
2023/02/07 08:07:12;;;;;;;5.33;3.00;;;2.50;99.90;;;;;;5032477;28;20181;-79
2023/02/07 08:09:38;;;;;;;3.42;2.58;;;2.50;99.90;;;;;;5030797;28;20189;-80
2023/02/07 08:12:04;;;;;;;4.00;2.43;;;2.50;99.90;;;;;;5025530;28;20282;-80
2023/02/07 08:14:30;;;;;;;2.42;2.10;;;2.60;99.90;;;;;;5030154;28;20679;-80
2023/02/07 08:16:55;;;;;;;2.73;2.33;;;2.60;99.90;;;;;;5032302;28;20245;-80
2023/02/07 08:19:21;;;;;;;3.90;2.67;;;2.70;99.90;;;;;;5027477;28;20184;-81
2023/02/07 08:21:47;;;;;;;3.90;2.55;;;2.70;99.90;;;;;;5026120;28;20182;-81
2023/02/07 08:24:13;;;;;;;5.63;3.13;;;2.70;99.90;;;;;;5029936;28;20630;-80
2023/02/07 08:26:38;;;;;;;3.70;3.07;;;2.70;99.90;;;;;;5028653;28;20173;-80
2023/02/07 08:29:04;;;;;;;5.43;2.73;;;2.80;99.90;;;;;;5030319;28;20182;-79
2023/02/07 08:31:30;;;;;;;4.30;3.42;;;2.90;99.90;;;;;;5013891;28;20654;-79
2023/02/07 08:33:56;;;;;;;4.05;2.95;;;2.90;99.90;;;;;;5031964;28;20225;-79
2023/02/07 08:36:22;;;;;;;5.00;2.73;;;3.00;99.90;;;;;;5031654;28;20260;-80
2023/02/07 08:38:49;;;;;;;3.87;2.90;;;3.00;99.90;;;;;;5030662;28;20188;-79
2023/02/07 08:41:15;;;;;;;3.60;2.85;;;3.10;99.90;;;;;;5028802;28;20342;-80
2023/02/07 08:43:41;;;;;;;6.53;4.50;;;3.10;99.90;;;;;;5028574;28;20671;-80
2023/02/07 08:46:07;;;;;;;3.37;2.80;;;3.10;99.90;;;;;;5031660;28;20276;-80
2023/02/07 08:48:32;;;;;;;4.10;3.70;;;3.20;99.90;;;;;;5030471;28;20311;-81
2023/02/07 08:51:07;;;;;;;5.23;3.67;;;3.30;99.90;;;;;;5030794;28;20653;-79
2023/02/07 08:53:33;;;;;;;3.40;3.00;;;3.30;99.90;;;;;;5014537;28;20608;-80
2023/02/07 08:55:59;;;;;;;4.67;3.40;;;3.40;99.90;;;;;;5032943;28;20525;-80
2023/02/07 08:58:25;;;;;;;5.40;3.67;;;3.40;99.90;;;;;;5032970;28;21142;-78
2023/02/07 09:00:51;;;;;;;4.00;2.67;;;3.50;99.90;;;;;;5032200;28;20205;-80
2023/02/07 09:03:16;;;;;;;4.00;3.37;;;3.60;99.90;;;;;;5013809;28;20663;-80
2023/02/07 09:05:42;;;;;;;4.07;2.83;;;3.60;99.90;;;;;;5030472;28;20173;-80
2023/02/07 09:08:08;;;;;;;5.30;3.80;;;3.70;99.90;;;;;;5015434;28;20169;-80
2023/02/07 09:10:34;;;;;;;5.60;3.40;;;3.70;99.90;;;;;;5029782;28;20550;-80
2023/02/07 09:12:59;;;;;;;4.80;3.67;;;3.90;99.90;;;;;;5030395;28;20189;-80
2023/02/07 09:15:26;;;;;;;6.85;3.20;;;3.90;99.90;;;;;;5030871;28;20566;-80
2023/02/07 09:17:52;;;;;;;4.80;3.10;;;4.00;99.90;;;;;;5030211;28;20188;-79
2023/02/07 09:20:18;;;;;;;3.27;2.87;;;4.10;99.90;;;;;;5030703;28;20736;-80
2023/02/07 09:25:28;;;;;;;6.68;3.58;;;4.30;99.90;;;;;;5029189;28;20268;-80
2023/02/07 09:27:54;;;;;;;5.10;4.10;;;4.70;99.90;;;;;;5031074;28;20261;-80
2023/02/07 09:30:20;;;;;;;4.45;3.97;;;5.20;99.90;;;;;;5029533;28;20182;-80
2023/02/07 09:32:46;;;;;;;3.47;3.10;;;5.90;99.90;;;;;;5030669;28;20289;-79
2023/02/07 09:35:12;;;;;;;4.07;3.67;;;6.60;99.90;;;;;;5028762;28;20993;-80
2023/02/07 09:37:37;;;;;;;5.03;3.60;;;7.10;99.90;;;;;;5029611;28;20711;-80
2023/02/07 09:40:03;;;;;;;4.03;3.40;;;7.80;99.90;;;;;;5013249;28;20201;-79
2023/02/07 09:42:47;;;;;;;4.15;3.03;;;8.50;99.90;;;;;;5028938;28;20243;-80
2023/02/07 09:45:22;;;;;;;5.55;3.50;;;9.40;99.90;;;;;;5014321;28;20178;-80
2023/02/07 09:47:51;;;;;;;4.10;3.60;;;10.40;99.90;;;;;;5029497;28;20169;-80
2023/02/07 09:50:26;;;;;;;5.40;3.57;;;11.00;99.90;;;;;;5029351;28;21175;-79
2023/02/07 09:52:57;;;;;;;4.57;3.57;;;11.50;99.90;;;;;;5030223;28;20634;-80
2023/02/07 09:55:27;;;;;;;4.23;3.73;;;11.90;99.90;;;;;;5027826;28;20612;-80
2023/02/07 09:58:24;;;;;;;5.70;3.53;;;12.30;99.90;;;;;;5028293;28;20933;-81
2023/02/07 10:01:03;;;;;;;4.10;3.40;;;12.60;97.40;;;;;;5031386;28;20627;-79
2023/02/07 10:03:35;;;;;;;3.47;3.17;;;12.90;99.90;;;;;;5029987;28;20689;-79
2023/02/07 10:06:05;;;;;;;4.20;3.17;;;12.90;99.90;;;;;;5029899;28;20595;-79
2023/02/07 10:08:33;;;;;;;4.90;3.40;;;12.90;99.90;;;;;;5030098;28;20634;-78
2023/02/07 10:11:12;;;;;;;6.23;4.00;;;13.00;99.90;;;;;;5029042;28;20589;-79
2023/02/07 10:13:53;;;;;;;3.20;2.90;;;12.90;99.90;;;;;;5029944;28;20703;-79
2023/02/07 10:16:24;;;;;;;3.90;3.60;;;13.30;99.90;;;;;;5032335;28;20627;-79
2023/02/07 10:19:04;;;;;;;4.73;3.90;;;13.70;99.90;;;;;;5033558;28;20594;-79
2023/02/07 10:21:44;;;;;;;3.43;3.13;;;13.90;99.90;;;;;;5032822;28;20623;-79
2023/02/07 10:24:23;;;;;;;5.07;4.67;;;14.00;99.90;;;;;;5032213;28;21140;-78
2023/02/07 10:27:12;;;;;;;3.47;3.00;;;13.80;93.50;;;;;;5032349;28;20630;-78
2023/02/07 10:29:49;;;;;;;3.63;2.70;;;13.70;99.90;;;;;;5015113;28;20602;-78
2023/02/07 10:32:24;;;;;;;3.57;3.10;;;13.60;99.90;;;;;;5015853;28;20654;-78
2023/02/07 10:34:57;;;;;;;4.33;3.67;;;13.40;99.90;;;;;;5032880;28;20579;-78
2023/02/07 10:37:25;;;;;;;3.40;2.87;;;13.30;99.90;;;;;;5032749;28;20919;-78
2023/02/07 10:40:11;;;;;;;3.73;3.40;;;13.30;99.90;;;;;;5032508;28;20972;-77
2023/02/07 10:42:39;;;;;;;5.27;3.87;;;13.00;96.10;;;;;;5031979;28;20662;-78
2023/02/07 10:45:06;;;;;;;3.20;2.90;;;12.70;98.80;;;;;;5031999;28;20589;-78
2023/02/07 10:47:37;;;;;;;4.43;3.50;;;12.50;99.80;;;;;;5029380;28;20596;-78
2023/02/07 10:50:14;;;;;;;4.13;3.73;;;12.30;96.00;;;;;;5031950;28;20588;-78
2023/02/07 10:52:59;;;;;;;5.20;4.63;;;12.10;97.60;;;;;;5031571;28;20612;-78
2023/02/07 10:55:45;;;;;;;3.90;3.60;;;11.70;92.50;;;;;;5033050;28;20588;-78
2023/02/07 10:58:22;;;;;;;4.47;4.00;;;10.80;85.20;;;;;;5031781;28;20653;-78
2023/02/07 11:00:51;;;;;;;5.72;4.00;;;10.30;90.70;;;;;;5017366;28;20209;-77
2023/02/07 11:03:22;;;;;;;5.50;4.13;;;9.80;93.10;;;;;;5032998;28;20186;-78
2023/02/07 11:05:58;;;;;;;3.95;3.55;;;9.40;94.30;;;;;;5033089;28;20170;-79
2023/02/07 11:08:29;;;;;;;6.35;3.95;;;9.20;95.20;;;;;;5032997;28;20522;-79
2023/02/07 11:11:16;;;;;;;4.88;3.70;;;8.90;94.90;;;;;;5032875;28;20186;-78
2023/02/07 11:13:48;;;;;;;5.35;3.90;;;8.70;96.10;;;;;;5032827;28;20197;-78
2023/02/07 11:16:16;;;;;;;5.80;4.35;;;8.50;96.60;;;;;;5035751;28;20228;-78
2023/02/07 11:19:00;;;;;;;4.47;4.07;;;8.30;94.70;;;;;;5035871;28;20177;-78
2023/02/07 11:21:34;;;;;;;4.00;3.15;;;8.00;93.20;;;;;;5031434;28;20271;-78
2023/02/07 11:24:30;;;;;;;4.80;3.70;;;7.90;97.20;;;;;;5031660;28;20213;-78
2023/02/07 11:27:02;;;;;;;5.47;4.95;;;7.80;95.70;;;;;;5031995;28;20617;-78
2023/02/07 11:29:30;;;;;;;5.00;4.55;;;7.60;95.20;;;;;;5031784;28;20178;-78
2023/02/07 11:31:59;;;;;;;7.63;4.40;;;7.40;95.20;;;;;;5030916;28;20200;-77
2023/02/07 11:34:44;;;;;;;5.28;4.60;;;7.40;97.80;;;;;;5028327;28;20178;-77
2023/02/07 11:37:16;;;;;;;6.03;4.75;;;7.40;98.90;;;;;;5015689;28;20186;-78
2023/02/07 11:39:43;;;;;;;5.20;4.68;;;7.30;99.00;;;;;;5013724;28;20178;-78
2023/02/07 11:42:30;;;;;;;5.80;4.25;;;7.20;98.70;;;;;;5011197;28;20592;-78
2023/02/07 11:45:03;;;;;;;5.57;4.43;;;7.20;96.60;;;;;;5012536;28;20167;-78
2023/02/07 11:47:30;;;;;;;5.05;4.32;;;7.10;96.60;;;;;;5013034;28;20206;-79
2023/02/07 11:49:59;;;;;;;7.25;4.40;;;7.00;98.10;;;;;;5012351;28;20171;-79
2023/02/07 11:52:26;;;;;;;5.75;4.70;;;6.90;98.70;;;;;;5029544;28;20201;-79
2023/02/07 11:55:07;;;;;;;6.50;4.85;;;6.90;99.80;;;;;;5030705;28;20173;-79
2023/02/07 11:57:33;;;;;;;8.70;3.90;;;6.90;97.50;;;;;;5032300;28;20264;-79
2023/02/07 12:00:22;;;;;;;5.53;4.40;;;7.00;99.90;;;;;;5032298;28;20201;-80
2023/02/07 12:03:21;;;;;;;6.60;4.55;;;7.00;99.80;;;;;;5030105;28;20201;-79
2023/02/07 12:05:52;;;;;;;6.00;3.67;;;7.00;97.80;;;;;;5026826;28;20567;-80
2023/02/07 12:08:21;;;;;;;5.03;4.53;;;7.10;99.60;;;;;;5030347;28;20166;-80
2023/02/07 12:10:56;;;;;;;6.38;3.75;;;7.10;99.80;;;;;;5030699;28;20181;-79
2023/02/07 12:13:32;;;;;;;4.93;4.30;;;7.00;98.20;;;;;;5029500;28;20225;-79
2023/02/07 12:16:17;;;;;;;5.00;4.00;;;7.00;98.10;;;;;;5031392;28;20603;-80
2023/02/07 12:18:54;;;;;;;6.97;4.45;;;7.00;97.60;;;;;;5032004;28;20249;-80
2023/02/07 12:21:40;;;;;;;4.50;3.95;;;7.00;95.50;;;;;;5029785;28;20270;-80
2023/02/07 12:24:10;;;;;;;4.28;3.40;;;7.00;97.10;;;;;;5032309;28;20251;-79
2023/02/07 12:26:58;;;;;;;5.43;3.95;;;7.00;98.10;;;;;;5013476;28;20170;-79
2023/02/07 12:29:48;;;;;;;4.72;3.10;;;7.00;98.20;;;;;;5031860;28;20596;-80
2023/02/07 12:32:30;;;;;;;4.35;3.50;;;7.00;97.30;;;;;;5013513;28;20203;-79
2023/02/07 12:35:27;;;;;;;4.50;3.90;;;7.10;98.90;;;;;;5029818;28;20186;-79
2023/02/07 12:38:08;;;;;;;4.32;3.20;;;7.10;99.00;;;;;;5024945;28;20544;-79
2023/02/07 12:40:59;;;;;;;5.40;3.90;;;7.20;97.90;;;;;;5029417;28;20291;-80
2023/02/07 12:43:31;;;;;;;4.13;3.63;;;7.20;98.10;;;;;;5031011;28;20201;-80
2023/02/07 12:46:00;;;;;;;4.68;3.65;;;7.20;99.60;;;;;;5030544;28;20224;-80
2023/02/07 12:48:53;;;;;;;6.45;4.60;;;7.30;99.60;;;;;;5031536;28;20268;-79
2023/02/07 12:51:32;;;;;;;3.95;3.08;;;7.30;97.90;;;;;;5030802;28;20209;-79
2023/02/07 12:54:42;;;;;;;3.88;2.95;;;7.30;99.10;;;;;;5031104;28;20327;-80
2023/02/07 12:57:32;;;;;;;4.13;3.13;;;7.30;98.70;;;;;;5026783;28;20517;-79
2023/02/07 13:00:01;;;;;;;5.70;3.35;;;7.40;99.20;;;;;;5030733;28;20281;-79
2023/02/07 13:02:33;;;;;;;4.65;3.72;;;7.40;99.70;;;;;;5032374;28;20247;-80
2023/02/07 13:05:21;;;;;;;5.13;3.40;;;7.30;98.60;;;;;;5014850;28;20178;-80
2023/02/07 13:07:50;;;;;;;5.60;4.05;;;7.30;99.10;;;;;;5030431;28;20170;-81
2023/02/07 13:10:35;;;;;;;5.65;4.13;;;7.30;98.50;;;;;;5039049;28;20189;-80
2023/02/07 13:13:23;;;;;;;5.00;3.97;;;7.30;97.50;;;;;;5042240;28;20256;-79
2023/02/07 13:16:12;;;;;;;5.28;3.50;;;7.40;98.00;;;;;;5029404;28;20170;-79
2023/02/07 13:18:46;;;;;;;5.88;4.47;;;7.40;98.40;;;;;;5031096;28;20203;-79